sensor_id;sensor_type;location;lat;lon;timestamp;temperature;humidity
37938;DHT22;23763;48.130;11.602;2024-03-17T00:01:04;9.40;99.90
37938;DHT22;23763;48.130;11.602;2024-03-17T00:03:30;9.50;99.90
37938;DHT22;23763;48.130;11.602;2024-03-17T00:06:00;9.50;99.90
37938;DHT22;23763;48.130;11.602;2024-03-17T00:08:26;9.50;99.90
37938;DHT22;23763;48.130;11.602;2024-03-17T00:10:55;9.60;99.90
37938;DHT22;23763;48.130;11.602;2024-03-17T00:13:21;9.60;99.90
37938;DHT22;23763;48.130;11.602;2024-03-17T00:15:48;9.50;99.90
37938;DHT22;23763;48.130;11.602;2024-03-17T00:18:14;9.50;99.90
37938;DHT22;23763;48.130;11.602;2024-03-17T00:20:40;9.50;99.90
37938;DHT22;23763;48.130;11.602;2024-03-17T00:23:06;9.50;99.90
37938;DHT22;23763;48.130;11.602;2024-03-17T00:25:33;9.50;99.90
37938;DHT22;23763;48.130;11.602;2024-03-17T00:28:00;9.50;99.90
37938;DHT22;23763;48.130;11.602;2024-03-17T00:30:26;9.50;99.90
37938;DHT22;23763;48.130;11.602;2024-03-17T00:32:52;9.40;99.90
37938;DHT22;23763;48.130;11.602;2024-03-17T00:35:17;9.40;99.90
37938;DHT22;23763;48.130;11.602;2024-03-17T00:37:49;9.40;99.90
37938;DHT22;23763;48.130;11.602;2024-03-17T00:40:16;9.50;99.90
37938;DHT22;23763;48.130;11.602;2024-03-17T00:42:43;9.60;99.90
37938;DHT22;23763;48.130;11.602;2024-03-17T00:45:10;9.50;99.90
37938;DHT22;23763;48.130;11.602;2024-03-17T00:47:37;9.50;99.90
37938;DHT22;23763;48.130;11.602;2024-03-17T00:50:03;9.40;99.90
37938;DHT22;23763;48.130;11.602;2024-03-17T00:52:33;9.40;99.90
37938;DHT22;23763;48.130;11.602;2024-03-17T00:54:59;9.50;99.90
37938;DHT22;23763;48.130;11.602;2024-03-17T00:57:25;9.60;99.90
37938;DHT22;23763;48.130;11.602;2024-03-17T00:59:51;9.50;99.90
37938;DHT22;23763;48.130;11.602;2024-03-17T01:02:18;9.60;99.90
37938;DHT22;23763;48.130;11.602;2024-03-17T01:04:45;9.60;99.90
37938;DHT22;23763;48.130;11.602;2024-03-17T01:07:11;9.50;99.90
37938;DHT22;23763;48.130;11.602;2024-03-17T01:09:38;9.50;99.90
37938;DHT22;23763;48.130;11.602;2024-03-17T01:12:04;9.50;99.90
37938;DHT22;23763;48.130;11.602;2024-03-17T01:14:30;9.40;99.90
37938;DHT22;23763;48.130;11.602;2024-03-17T01:16:57;9.40;99.90
37938;DHT22;23763;48.130;11.602;2024-03-17T01:19:23;9.40;99.90
37938;DHT22;23763;48.130;11.602;2024-03-17T01:21:50;9.50;99.90
37938;DHT22;23763;48.130;11.602;2024-03-17T01:24:17;9.60;99.90
37938;DHT22;23763;48.130;11.602;2024-03-17T01:26:42;9.60;99.90
37938;DHT22;23763;48.130;11.602;2024-03-17T01:29:08;9.70;99.90
37938;DHT22;23763;48.130;11.602;2024-03-17T01:31:34;9.60;99.90
37938;DHT22;23763;48.130;11.602;2024-03-17T01:34:00;9.70;99.90
37938;DHT22;23763;48.130;11.602;2024-03-17T01:36:26;9.60;99.90
37938;DHT22;23763;48.130;11.602;2024-03-17T01:38:52;9.50;99.90
37938;DHT22;23763;48.130;11.602;2024-03-17T01:41:18;9.40;99.90
37938;DHT22;23763;48.130;11.602;2024-03-17T01:43:44;9.30;99.90
37938;DHT22;23763;48.130;11.602;2024-03-17T01:46:14;9.30;99.90
37938;DHT22;23763;48.130;11.602;2024-03-17T01:48:41;9.30;99.90
37938;DHT22;23763;48.130;11.602;2024-03-17T01:51:08;9.30;99.90
37938;DHT22;23763;48.130;11.602;2024-03-17T01:53:35;9.30;99.90
37938;DHT22;23763;48.130;11.602;2024-03-17T01:56:02;9.20;99.90
37938;DHT22;23763;48.130;11.602;2024-03-17T01:58:30;9.20;99.90
37938;DHT22;23763;48.130;11.602;2024-03-17T02:00:56;9.10;99.90
37938;DHT22;23763;48.130;11.602;2024-03-17T02:03:22;9.10;99.90
37938;DHT22;23763;48.130;11.602;2024-03-17T02:05:48;9.20;99.90
37938;DHT22;23763;48.130;11.602;2024-03-17T02:08:14;9.20;99.90
37938;DHT22;23763;48.130;11.602;2024-03-17T02:10:40;9.30;99.90
37938;DHT22;23763;48.130;11.602;2024-03-17T02:13:06;9.40;99.90
37938;DHT22;23763;48.130;11.602;2024-03-17T02:15:32;9.40;99.90
37938;DHT22;23763;48.130;11.602;2024-03-17T02:17:58;9.40;99.90
37938;DHT22;23763;48.130;11.602;2024-03-17T02:20:24;9.30;99.90
37938;DHT22;23763;48.130;11.602;2024-03-17T02:23:10;9.30;99.90
37938;DHT22;23763;48.130;11.602;2024-03-17T02:25:36;9.30;99.90
37938;DHT22;23763;48.130;11.602;2024-03-17T02:28:02;9.20;99.90
37938;DHT22;23763;48.130;11.602;2024-03-17T02:30:28;9.20;99.90
37938;DHT22;23763;48.130;11.602;2024-03-17T02:32:55;9.20;99.90
37938;DHT22;23763;48.130;11.602;2024-03-17T02:35:26;9.30;99.90
37938;DHT22;23763;48.130;11.602;2024-03-17T02:37:52;9.30;99.90
37938;DHT22;23763;48.130;11.602;2024-03-17T02:40:18;9.30;99.90
37938;DHT22;23763;48.130;11.602;2024-03-17T02:42:44;9.20;99.90
37938;DHT22;23763;48.130;11.602;2024-03-17T02:45:11;9.30;99.90
37938;DHT22;23763;48.130;11.602;2024-03-17T02:47:38;9.30;99.90
37938;DHT22;23763;48.130;11.602;2024-03-17T02:50:04;9.30;99.90
37938;DHT22;23763;48.130;11.602;2024-03-17T02:52:30;9.30;99.90
37938;DHT22;23763;48.130;11.602;2024-03-17T02:54:56;9.30;99.90
37938;DHT22;23763;48.130;11.602;2024-03-17T02:57:23;9.20;99.90
37938;DHT22;23763;48.130;11.602;2024-03-17T02:59:55;9.30;99.90
37938;DHT22;23763;48.130;11.602;2024-03-17T03:02:21;9.20;99.90
37938;DHT22;23763;48.130;11.602;2024-03-17T03:04:46;9.30;99.90
37938;DHT22;23763;48.130;11.602;2024-03-17T03:07:12;9.30;99.90
37938;DHT22;23763;48.130;11.602;2024-03-17T03:09:38;9.20;99.90
37938;DHT22;23763;48.130;11.602;2024-03-17T03:12:04;9.20;99.90
37938;DHT22;23763;48.130;11.602;2024-03-17T03:14:30;9.20;99.90
37938;DHT22;23763;48.130;11.602;2024-03-17T03:16:57;9.10;99.90
37938;DHT22;23763;48.130;11.602;2024-03-17T03:19:24;9.10;99.90
37938;DHT22;23763;48.130;11.602;2024-03-17T03:21:50;9.20;99.90
37938;DHT22;23763;48.130;11.602;2024-03-17T03:24:16;9.20;99.90
37938;DHT22;23763;48.130;11.602;2024-03-17T03:26:42;9.10;99.90
37938;DHT22;23763;48.130;11.602;2024-03-17T03:29:09;9.00;99.90
37938;DHT22;23763;48.130;11.602;2024-03-17T03:31:36;9.00;99.90
37938;DHT22;23763;48.130;11.602;2024-03-17T03:34:02;9.00;99.90
37938;DHT22;23763;48.130;11.602;2024-03-17T03:36:28;9.10;99.90
37938;DHT22;23763;48.130;11.602;2024-03-17T03:38:54;9.20;99.90
37938;DHT22;23763;48.130;11.602;2024-03-17T03:41:23;9.20;99.90
37938;DHT22;23763;48.130;11.602;2024-03-17T03:43:49;9.20;99.90
37938;DHT22;23763;48.130;11.602;2024-03-17T03:46:15;9.20;99.90
37938;DHT22;23763;48.130;11.602;2024-03-17T03:48:40;9.30;99.90
37938;DHT22;23763;48.130;11.602;2024-03-17T03:51:09;9.30;99.90
37938;DHT22;23763;48.130;11.602;2024-03-17T03:53:36;9.30;99.90
37938;DHT22;23763;48.130;11.602;2024-03-17T03:56:04;9.30;99.90
37938;DHT22;23763;48.130;11.602;2024-03-17T03:58:37;9.30;99.90
37938;DHT22;23763;48.130;11.602;2024-03-17T04:01:09;9.30;99.90
37938;DHT22;23763;48.130;11.602;2024-03-17T04:03:41;9.30;99.90
37938;DHT22;23763;48.130;11.602;2024-03-17T04:06:08;9.20;99.90
37938;DHT22;23763;48.130;11.602;2024-03-17T04:08:35;9.30;99.90
37938;DHT22;23763;48.130;11.602;2024-03-17T04:11:03;9.30;99.90
37938;DHT22;23763;48.130;11.602;2024-03-17T04:13:29;9.30;99.90
37938;DHT22;23763;48.130;11.602;2024-03-17T04:15:59;9.30;99.90
37938;DHT22;23763;48.130;11.602;2024-03-17T04:18:25;9.20;99.90
37938;DHT22;23763;48.130;11.602;2024-03-17T04:20:55;9.20;99.90
37938;DHT22;23763;48.130;11.602;2024-03-17T04:23:22;9.10;99.90
37938;DHT22;23763;48.130;11.602;2024-03-17T04:25:49;9.10;99.90
37938;DHT22;23763;48.130;11.602;2024-03-17T04:28:15;9.00;99.90
37938;DHT22;23763;48.130;11.602;2024-03-17T04:30:41;9.00;99.90
37938;DHT22;23763;48.130;11.602;2024-03-17T04:33:11;9.10;99.90
37938;DHT22;23763;48.130;11.602;2024-03-17T04:35:40;9.10;99.90
37938;DHT22;23763;48.130;11.602;2024-03-17T04:38:09;9.10;99.90
37938;DHT22;23763;48.130;11.602;2024-03-17T04:40:41;9.10;99.90
37938;DHT22;23763;48.130;11.602;2024-03-17T04:43:08;9.20;99.90
37938;DHT22;23763;48.130;11.602;2024-03-17T04:45:34;9.20;99.90
37938;DHT22;23763;48.130;11.602;2024-03-17T04:47:59;9.20;99.90
37938;DHT22;23763;48.130;11.602;2024-03-17T04:50:25;9.20;99.90
37938;DHT22;23763;48.130;11.602;2024-03-17T04:52:57;9.20;99.90
37938;DHT22;23763;48.130;11.602;2024-03-17T04:55:23;9.20;99.90
37938;DHT22;23763;48.130;11.602;2024-03-17T04:57:49;9.20;99.90
37938;DHT22;23763;48.130;11.602;2024-03-17T05:00:15;9.10;99.90
37938;DHT22;23763;48.130;11.602;2024-03-17T05:02:43;9.10;99.90
37938;DHT22;23763;48.130;11.602;2024-03-17T05:05:09;9.20;99.90
37938;DHT22;23763;48.130;11.602;2024-03-17T05:07:36;9.20;99.90
37938;DHT22;23763;48.130;11.602;2024-03-17T05:10:02;9.20;99.90
37938;DHT22;23763;48.130;11.602;2024-03-17T05:12:28;9.20;99.90
37938;DHT22;23763;48.130;11.602;2024-03-17T05:14:54;9.20;99.90
37938;DHT22;23763;48.130;11.602;2024-03-17T05:17:20;9.20;99.90
37938;DHT22;23763;48.130;11.602;2024-03-17T05:19:45;9.20;99.90
37938;DHT22;23763;48.130;11.602;2024-03-17T05:22:11;9.10;99.90
37938;DHT22;23763;48.130;11.602;2024-03-17T05:24:37;9.10;99.90
37938;DHT22;23763;48.130;11.602;2024-03-17T05:27:03;9.20;99.90
37938;DHT22;23763;48.130;11.602;2024-03-17T05:29:29;9.20;99.90
37938;DHT22;23763;48.130;11.602;2024-03-17T05:31:55;9.20;99.90
37938;DHT22;23763;48.130;11.602;2024-03-17T05:34:21;9.10;99.90
37938;DHT22;23763;48.130;11.602;2024-03-17T05:36:48;9.20;99.90
37938;DHT22;23763;48.130;11.602;2024-03-17T05:39:15;9.20;99.90
37938;DHT22;23763;48.130;11.602;2024-03-17T05:41:40;9.10;99.90
37938;DHT22;23763;48.130;11.602;2024-03-17T05:44:09;9.20;99.90
37938;DHT22;23763;48.130;11.602;2024-03-17T05:46:34;9.20;99.90
37938;DHT22;23763;48.130;11.602;2024-03-17T05:49:00;9.20;99.90
37938;DHT22;23763;48.130;11.602;2024-03-17T05:51:26;9.20;99.90
37938;DHT22;23763;48.130;11.602;2024-03-17T05:53:53;9.30;99.90
37938;DHT22;23763;48.130;11.602;2024-03-17T05:56:21;9.30;99.90
37938;DHT22;23763;48.130;11.602;2024-03-17T05:58:48;9.40;99.90
37938;DHT22;23763;48.130;11.602;2024-03-17T06:01:14;9.40;99.90
37938;DHT22;23763;48.130;11.602;2024-03-17T06:03:39;9.50;99.90
37938;DHT22;23763;48.130;11.602;2024-03-17T06:06:08;9.40;99.90
37938;DHT22;23763;48.130;11.602;2024-03-17T06:08:37;9.30;99.90
37938;DHT22;23763;48.130;11.602;2024-03-17T06:11:04;9.20;99.90
37938;DHT22;23763;48.130;11.602;2024-03-17T06:13:30;9.30;99.90
37938;DHT22;23763;48.130;11.602;2024-03-17T06:15:56;9.10;99.90
37938;DHT22;23763;48.130;11.602;2024-03-17T06:18:26;9.10;99.90
37938;DHT22;23763;48.130;11.602;2024-03-17T06:20:52;9.10;99.90
37938;DHT22;23763;48.130;11.602;2024-03-17T06:23:18;9.20;99.90
37938;DHT22;23763;48.130;11.602;2024-03-17T06:25:48;9.20;99.90
37938;DHT22;23763;48.130;11.602;2024-03-17T06:28:15;9.20;99.90
37938;DHT22;23763;48.130;11.602;2024-03-17T06:33:13;9.50;99.90
37938;DHT22;23763;48.130;11.602;2024-03-17T06:35:39;9.50;99.90
37938;DHT22;23763;48.130;11.602;2024-03-17T06:38:05;9.60;99.90
37938;DHT22;23763;48.130;11.602;2024-03-17T06:40:38;9.50;99.90
37938;DHT22;23763;48.130;11.602;2024-03-17T06:43:04;9.60;99.90
37938;DHT22;23763;48.130;11.602;2024-03-17T06:45:30;9.80;99.90
37938;DHT22;23763;48.130;11.602;2024-03-17T06:47:55;9.80;99.90
37938;DHT22;23763;48.130;11.602;2024-03-17T06:50:22;9.90;99.90
37938;DHT22;23763;48.130;11.602;2024-03-17T06:52:47;10.00;99.90
37938;DHT22;23763;48.130;11.602;2024-03-17T06:55:13;10.10;99.90
37938;DHT22;23763;48.130;11.602;2024-03-17T06:57:41;10.20;99.90
37938;DHT22;23763;48.130;11.602;2024-03-17T07:00:14;10.40;99.90
37938;DHT22;23763;48.130;11.602;2024-03-17T07:02:41;10.60;99.90
37938;DHT22;23763;48.130;11.602;2024-03-17T07:05:14;10.50;99.90
37938;DHT22;23763;48.130;11.602;2024-03-17T07:07:43;10.40;99.90
37938;DHT22;23763;48.130;11.602;2024-03-17T07:10:10;10.50;99.90
37938;DHT22;23763;48.130;11.602;2024-03-17T07:12:37;10.50;99.90
37938;DHT22;23763;48.130;11.602;2024-03-17T07:15:03;10.50;99.90
37938;DHT22;23763;48.130;11.602;2024-03-17T07:17:29;10.60;99.90
37938;DHT22;23763;48.130;11.602;2024-03-17T07:19:55;10.50;99.90
37938;DHT22;23763;48.130;11.602;2024-03-17T07:22:20;10.50;99.90
37938;DHT22;23763;48.130;11.602;2024-03-17T07:24:48;10.60;99.90
37938;DHT22;23763;48.130;11.602;2024-03-17T07:27:15;10.60;99.90
37938;DHT22;23763;48.130;11.602;2024-03-17T07:29:41;10.60;99.90
37938;DHT22;23763;48.130;11.602;2024-03-17T07:32:07;10.70;99.90
37938;DHT22;23763;48.130;11.602;2024-03-17T07:34:33;10.80;99.90
37938;DHT22;23763;48.130;11.602;2024-03-17T07:37:00;11.00;99.90
37938;DHT22;23763;48.130;11.602;2024-03-17T07:39:29;11.10;99.90
37938;DHT22;23763;48.130;11.602;2024-03-17T07:42:02;11.30;99.90
37938;DHT22;23763;48.130;11.602;2024-03-17T07:44:28;11.60;99.90
37938;DHT22;23763;48.130;11.602;2024-03-17T07:46:59;11.90;99.90
37938;DHT22;23763;48.130;11.602;2024-03-17T07:49:25;12.10;99.90
37938;DHT22;23763;48.130;11.602;2024-03-17T07:51:51;11.90;99.90
37938;DHT22;23763;48.130;11.602;2024-03-17T07:54:17;11.90;99.90
37938;DHT22;23763;48.130;11.602;2024-03-17T07:56:45;12.00;99.90
37938;DHT22;23763;48.130;11.602;2024-03-17T07:59:12;12.20;99.90
37938;DHT22;23763;48.130;11.602;2024-03-17T08:01:40;12.50;99.90
37938;DHT22;23763;48.130;11.602;2024-03-17T08:04:06;12.70;99.90
37938;DHT22;23763;48.130;11.602;2024-03-17T08:06:32;12.70;99.90
37938;DHT22;23763;48.130;11.602;2024-03-17T08:08:58;12.80;99.90
37938;DHT22;23763;48.130;11.602;2024-03-17T08:11:24;12.70;99.90
37938;DHT22;23763;48.130;11.602;2024-03-17T08:13:52;12.90;99.90
37938;DHT22;23763;48.130;11.602;2024-03-17T08:16:19;13.30;99.90
37938;DHT22;23763;48.130;11.602;2024-03-17T08:18:45;13.30;99.90
37938;DHT22;23763;48.130;11.602;2024-03-17T08:21:11;13.40;99.90
37938;DHT22;23763;48.130;11.602;2024-03-17T08:23:37;13.20;99.90
37938;DHT22;23763;48.130;11.602;2024-03-17T08:26:08;13.10;99.90
37938;DHT22;23763;48.130;11.602;2024-03-17T08:28:34;13.30;99.90
37938;DHT22;23763;48.130;11.602;2024-03-17T08:31:01;13.30;99.90
37938;DHT22;23763;48.130;11.602;2024-03-17T08:33:28;13.50;99.90
37938;DHT22;23763;48.130;11.602;2024-03-17T08:36:02;13.50;99.90
37938;DHT22;23763;48.130;11.602;2024-03-17T08:38:29;13.70;99.90
37938;DHT22;23763;48.130;11.602;2024-03-17T08:40:56;13.90;99.90
37938;DHT22;23763;48.130;11.602;2024-03-17T08:43:22;13.80;99.90
37938;DHT22;23763;48.130;11.602;2024-03-17T08:45:59;13.70;99.90
37938;DHT22;23763;48.130;11.602;2024-03-17T08:48:27;13.90;99.90
37938;DHT22;23763;48.130;11.602;2024-03-17T08:50:54;14.10;99.90
37938;DHT22;23763;48.130;11.602;2024-03-17T08:53:21;14.20;99.90
37938;DHT22;23763;48.130;11.602;2024-03-17T08:55:47;14.40;99.90
37938;DHT22;23763;48.130;11.602;2024-03-17T08:58:13;14.80;99.90
37938;DHT22;23763;48.130;11.602;2024-03-17T09:00:39;14.90;99.90
37938;DHT22;23763;48.130;11.602;2024-03-17T09:03:07;14.60;99.90
37938;DHT22;23763;48.130;11.602;2024-03-17T09:05:36;14.50;99.90
37938;DHT22;23763;48.130;11.602;2024-03-17T09:08:02;15.00;99.90
37938;DHT22;23763;48.130;11.602;2024-03-17T09:10:28;15.20;99.90
37938;DHT22;23763;48.130;11.602;2024-03-17T09:12:53;15.10;99.90
37938;DHT22;23763;48.130;11.602;2024-03-17T09:15:20;15.00;99.90
37938;DHT22;23763;48.130;11.602;2024-03-17T09:17:46;14.90;99.90
37938;DHT22;23763;48.130;11.602;2024-03-17T09:20:13;15.00;99.90
37938;DHT22;23763;48.130;11.602;2024-03-17T09:22:43;14.80;99.90
37938;DHT22;23763;48.130;11.602;2024-03-17T09:25:09;14.70;99.90
37938;DHT22;23763;48.130;11.602;2024-03-17T09:27:35;14.50;99.90
37938;DHT22;23763;48.130;11.602;2024-03-17T09:30:04;14.10;99.90
37938;DHT22;23763;48.130;11.602;2024-03-17T09:32:37;13.80;99.90
37938;DHT22;23763;48.130;11.602;2024-03-17T09:35:05;13.70;99.90
37938;DHT22;23763;48.130;11.602;2024-03-17T09:37:31;14.10;99.90
37938;DHT22;23763;48.130;11.602;2024-03-17T09:39:58;14.30;99.90
37938;DHT22;23763;48.130;11.602;2024-03-17T09:42:26;14.70;99.90
37938;DHT22;23763;48.130;11.602;2024-03-17T09:44:53;14.80;99.90
37938;DHT22;23763;48.130;11.602;2024-03-17T09:47:23;14.80;99.90
37938;DHT22;23763;48.130;11.602;2024-03-17T09:49:50;14.60;99.90
37938;DHT22;23763;48.130;11.602;2024-03-17T09:52:24;14.80;99.90
37938;DHT22;23763;48.130;11.602;2024-03-17T09:55:01;14.80;99.90
37938;DHT22;23763;48.130;11.602;2024-03-17T09:57:33;14.80;99.90
37938;DHT22;23763;48.130;11.602;2024-03-17T10:00:05;15.20;99.90
37938;DHT22;23763;48.130;11.602;2024-03-17T10:02:45;15.30;99.90
37938;DHT22;23763;48.130;11.602;2024-03-17T10:05:23;15.30;99.90
37938;DHT22;23763;48.130;11.602;2024-03-17T10:07:50;15.10;99.90
37938;DHT22;23763;48.130;11.602;2024-03-17T10:10:17;14.80;99.90
37938;DHT22;23763;48.130;11.602;2024-03-17T10:12:44;14.70;99.90
37938;DHT22;23763;48.130;11.602;2024-03-17T10:15:12;14.70;99.90
37938;DHT22;23763;48.130;11.602;2024-03-17T10:17:38;14.80;99.90
37938;DHT22;23763;48.130;11.602;2024-03-17T10:20:18;15.10;99.90
37938;DHT22;23763;48.130;11.602;2024-03-17T10:23:04;15.10;99.90
37938;DHT22;23763;48.130;11.602;2024-03-17T10:25:32;15.10;99.90
37938;DHT22;23763;48.130;11.602;2024-03-17T10:27:59;14.90;99.90
37938;DHT22;23763;48.130;11.602;2024-03-17T10:30:27;14.70;99.90
37938;DHT22;23763;48.130;11.602;2024-03-17T10:33:03;14.70;99.90
37938;DHT22;23763;48.130;11.602;2024-03-17T10:35:33;14.80;99.90
37938;DHT22;23763;48.130;11.602;2024-03-17T10:38:03;14.90;99.90
37938;DHT22;23763;48.130;11.602;2024-03-17T10:40:33;15.20;99.90
37938;DHT22;23763;48.130;11.602;2024-03-17T10:43:05;15.30;99.90
37938;DHT22;23763;48.130;11.602;2024-03-17T10:45:32;15.40;99.90
37938;DHT22;23763;48.130;11.602;2024-03-17T10:48:03;15.50;99.90
37938;DHT22;23763;48.130;11.602;2024-03-17T10:50:31;15.50;99.90
37938;DHT22;23763;48.130;11.602;2024-03-17T10:53:02;15.40;99.90
37938;DHT22;23763;48.130;11.602;2024-03-17T10:56:03;15.20;99.90
37938;DHT22;23763;48.130;11.602;2024-03-17T10:58:35;15.00;99.90
37938;DHT22;23763;48.130;11.602;2024-03-17T11:01:02;15.20;99.90
37938;DHT22;23763;48.130;11.602;2024-03-17T11:03:34;15.50;99.90
37938;DHT22;23763;48.130;11.602;2024-03-17T11:06:02;15.80;99.90
37938;DHT22;23763;48.130;11.602;2024-03-17T11:08:33;15.80;99.90
37938;DHT22;23763;48.130;11.602;2024-03-17T11:10:59;15.80;99.90
37938;DHT22;23763;48.130;11.602;2024-03-17T11:13:29;16.00;99.90
37938;DHT22;23763;48.130;11.602;2024-03-17T11:15:56;16.00;99.90
37938;DHT22;23763;48.130;11.602;2024-03-17T11:23:28;16.00;99.90
37938;DHT22;23763;48.130;11.602;2024-03-17T11:25:55;15.60;99.90
37938;DHT22;23763;48.130;11.602;2024-03-17T11:31:40;15.70;99.90
37938;DHT22;23763;48.130;11.602;2024-03-17T11:36:52;15.40;99.90
37938;DHT22;23763;48.130;11.602;2024-03-17T11:39:19;15.30;99.90
37938;DHT22;23763;48.130;11.602;2024-03-17T11:41:46;15.20;99.90
37938;DHT22;23763;48.130;11.602;2024-03-17T11:51:46;15.40;99.90
37938;DHT22;23763;48.130;11.602;2024-03-17T11:54:17;15.60;99.90
37938;DHT22;23763;48.130;11.602;2024-03-17T11:56:51;15.60;99.90
37938;DHT22;23763;48.130;11.602;2024-03-17T11:59:18;15.50;99.90
37938;DHT22;23763;48.130;11.602;2024-03-17T12:01:49;15.50;99.90
37938;DHT22;23763;48.130;11.602;2024-03-17T12:04:20;15.50;99.90
37938;DHT22;23763;48.130;11.602;2024-03-17T12:06:47;15.70;99.90
37938;DHT22;23763;48.130;11.602;2024-03-17T12:09:27;16.00;99.90
37938;DHT22;23763;48.130;11.602;2024-03-17T12:12:01;16.10;99.90
37938;DHT22;23763;48.130;11.602;2024-03-17T12:14:27;16.00;99.90
37938;DHT22;23763;48.130;11.602;2024-03-17T12:19:20;15.90;99.90
37938;DHT22;23763;48.130;11.602;2024-03-17T12:21:51;16.00;99.90
37938;DHT22;23763;48.130;11.602;2024-03-17T12:24:21;16.10;99.90
37938;DHT22;23763;48.130;11.602;2024-03-17T12:26:48;16.00;99.90
37938;DHT22;23763;48.130;11.602;2024-03-17T12:29:32;15.80;99.90
37938;DHT22;23763;48.130;11.602;2024-03-17T12:32:01;15.60;99.90
37938;DHT22;23763;48.130;11.602;2024-03-17T12:34:32;15.60;99.90
37938;DHT22;23763;48.130;11.602;2024-03-17T12:36:58;15.50;99.90
37938;DHT22;23763;48.130;11.602;2024-03-17T12:39:32;15.40;99.90
37938;DHT22;23763;48.130;11.602;2024-03-17T12:42:05;15.50;99.90
37938;DHT22;23763;48.130;11.602;2024-03-17T12:44:35;15.80;99.90
37938;DHT22;23763;48.130;11.602;2024-03-17T12:47:04;15.80;99.90
37938;DHT22;23763;48.130;11.602;2024-03-17T12:49:32;15.70;99.90
37938;DHT22;23763;48.130;11.602;2024-03-17T12:52:03;15.70;99.90
37938;DHT22;23763;48.130;11.602;2024-03-17T12:54:29;15.50;99.90
37938;DHT22;23763;48.130;11.602;2024-03-17T12:57:08;15.60;99.90
37938;DHT22;23763;48.130;11.602;2024-03-17T12:59:53;15.60;99.90
37938;DHT22;23763;48.130;11.602;2024-03-17T13:02:46;15.70;99.90
37938;DHT22;23763;48.130;11.602;2024-03-17T13:05:19;15.90;99.90
37938;DHT22;23763;48.130;11.602;2024-03-17T13:07:46;16.00;99.90
37938;DHT22;23763;48.130;11.602;2024-03-17T13:10:19;16.00;99.90
37938;DHT22;23763;48.130;11.602;2024-03-17T13:12:48;16.00;99.90
37938;DHT22;23763;48.130;11.602;2024-03-17T13:15:23;16.10;99.90
37938;DHT22;23763;48.130;11.602;2024-03-17T13:17:48;16.20;99.90
37938;DHT22;23763;48.130;11.602;2024-03-17T13:20:15;16.10;99.90
37938;DHT22;23763;48.130;11.602;2024-03-17T13:22:45;16.00;99.90
37938;DHT22;23763;48.130;11.602;2024-03-17T13:25:24;15.80;99.90
37938;DHT22;23763;48.130;11.602;2024-03-17T13:27:53;15.70;99.90
37938;DHT22;23763;48.130;11.602;2024-03-17T13:30:22;15.60;99.90
37938;DHT22;23763;48.130;11.602;2024-03-17T13:32:49;15.90;99.90
37938;DHT22;23763;48.130;11.602;2024-03-17T13:35:22;16.00;99.90
37938;DHT22;23763;48.130;11.602;2024-03-17T13:37:49;16.10;99.90
37938;DHT22;23763;48.130;11.602;2024-03-17T13:40:17;16.30;99.90
37938;DHT22;23763;48.130;11.602;2024-03-17T13:42:48;16.20;99.90
37938;DHT22;23763;48.130;11.602;2024-03-17T13:45:14;16.10;99.90
37938;DHT22;23763;48.130;11.602;2024-03-17T13:47:41;16.20;99.90
37938;DHT22;23763;48.130;11.602;2024-03-17T13:50:09;16.20;99.90
37938;DHT22;23763;48.130;11.602;2024-03-17T13:52:43;16.10;99.90
37938;DHT22;23763;48.130;11.602;2024-03-17T13:55:14;16.00;99.90
37938;DHT22;23763;48.130;11.602;2024-03-17T13:57:46;16.00;99.90
37938;DHT22;23763;48.130;11.602;2024-03-17T14:00:13;15.90;99.90
37938;DHT22;23763;48.130;11.602;2024-03-17T14:02:46;15.80;99.90
37938;DHT22;23763;48.130;11.602;2024-03-17T14:05:13;15.90;99.90
37938;DHT22;23763;48.130;11.602;2024-03-17T14:07:39;15.80;99.90
37938;DHT22;23763;48.130;11.602;2024-03-17T14:10:06;15.70;99.90
37938;DHT22;23763;48.130;11.602;2024-03-17T14:12:34;15.70;99.90
37938;DHT22;23763;48.130;11.602;2024-03-17T14:15:01;15.70;99.90
37938;DHT22;23763;48.130;11.602;2024-03-17T14:17:26;15.80;99.90
37938;DHT22;23763;48.130;11.602;2024-03-17T14:19:52;15.70;99.90
37938;DHT22;23763;48.130;11.602;2024-03-17T14:22:18;15.70;99.90
37938;DHT22;23763;48.130;11.602;2024-03-17T14:24:44;15.70;99.90
37938;DHT22;23763;48.130;11.602;2024-03-17T14:27:12;15.70;99.90
37938;DHT22;23763;48.130;11.602;2024-03-17T14:29:38;15.70;99.90
37938;DHT22;23763;48.130;11.602;2024-03-17T14:32:04;15.70;99.90
37938;DHT22;23763;48.130;11.602;2024-03-17T14:34:30;15.70;99.90
37938;DHT22;23763;48.130;11.602;2024-03-17T14:37:01;15.70;99.90
37938;DHT22;23763;48.130;11.602;2024-03-17T14:39:28;15.60;99.90
37938;DHT22;23763;48.130;11.602;2024-03-17T14:41:55;15.50;99.90
37938;DHT22;23763;48.130;11.602;2024-03-17T14:44:21;15.40;99.90
37938;DHT22;23763;48.130;11.602;2024-03-17T14:46:47;15.40;99.90
37938;DHT22;23763;48.130;11.602;2024-03-17T14:49:15;15.40;99.90
37938;DHT22;23763;48.130;11.602;2024-03-17T14:51:41;15.30;99.90
37938;DHT22;23763;48.130;11.602;2024-03-17T14:54:10;15.40;99.90
37938;DHT22;23763;48.130;11.602;2024-03-17T14:56:36;15.20;99.90
37938;DHT22;23763;48.130;11.602;2024-03-17T14:59:02;15.20;99.90
37938;DHT22;23763;48.130;11.602;2024-03-17T15:01:27;15.20;99.90
37938;DHT22;23763;48.130;11.602;2024-03-17T15:03:56;15.20;99.90
37938;DHT22;23763;48.130;11.602;2024-03-17T15:06:22;15.10;99.90
37938;DHT22;23763;48.130;11.602;2024-03-17T15:08:48;14.90;99.90
37938;DHT22;23763;48.130;11.602;2024-03-17T15:11:14;14.90;99.90
37938;DHT22;23763;48.130;11.602;2024-03-17T15:13:40;14.90;99.90
37938;DHT22;23763;48.130;11.602;2024-03-17T15:16:08;14.80;99.90
37938;DHT22;23763;48.130;11.602;2024-03-17T15:18:33;14.90;99.90
37938;DHT22;23763;48.130;11.602;2024-03-17T15:21:00;14.90;99.90
37938;DHT22;23763;48.130;11.602;2024-03-17T15:23:27;14.80;99.90
37938;DHT22;23763;48.130;11.602;2024-03-17T15:26:04;14.80;99.90
37938;DHT22;23763;48.130;11.602;2024-03-17T15:28:43;14.70;99.90
37938;DHT22;23763;48.130;11.602;2024-03-17T15:31:09;14.70;99.90
37938;DHT22;23763;48.130;11.602;2024-03-17T15:33:37;14.70;99.90
37938;DHT22;23763;48.130;11.602;2024-03-17T15:36:04;14.70;99.90
37938;DHT22;23763;48.130;11.602;2024-03-17T15:38:37;14.60;99.90
37938;DHT22;23763;48.130;11.602;2024-03-17T15:41:07;14.50;99.90
37938;DHT22;23763;48.130;11.602;2024-03-17T15:43:45;14.60;99.90
37938;DHT22;23763;48.130;11.602;2024-03-17T15:46:20;14.60;99.90
37938;DHT22;23763;48.130;11.602;2024-03-17T15:48:48;14.60;99.90
37938;DHT22;23763;48.130;11.602;2024-03-17T15:51:14;14.60;99.90